Amherst, WI (54406)

5:13 PM CST on February 09, 2016 (GMT -0600)
Gordondale Farms | | Change Station
CLOSE
Current Station
Personal Weather Station
Location: Nelsonville, WI
Elevation: 1080 ft
Nearby Weather Stations

Elev 1080 ft 44.49 °N, 89.31 °W | Updated 2 minutes ago

Overcast
Overcast
15.4 °F
Feels Like 4 °F
N
9.0
Wind Variable Wind from NW
Gusts 22.0 mph

Today
High -- | Low -- °F
--% Chance of Precip.
Yesterday
High -- | Low -- °F
Precip. -- in
Pressure 29.92 in
Visibility 10.0 miles
Clouds Overcast 3300 ft
Windchill 4 °F
Dew Point 8 °F
Humidity 72%
Rainfall 0.00 in
Snow Depth Not available.
7:06 AM 5:17 PM
New Moon, 2% visible
METAR KSTE 092255Z AUTO 31010G15KT 10SM OVC033 M11/M16 A2992 RMK AO2 T11061165
Pressure 29.92 in
Visibility 10.0 miles
Clouds Overcast 3300 ft
Windchill 4 °F
Dew Point 8 °F
Humidity 72%
Rainfall 0.00 in
Snow Depth Not available.
7:06 AM 5:17 PM
New Moon, 2% visible
METAR KSTE 092255Z AUTO 31010G15KT 10SM OVC033 M11/M16 A2992 RMK AO2 T11061165

10-Day Weather Forecast

Almanac

Astronomy

Feb. 09, 2016 Rise Set
Actual Time
Civil Twilight
Nautical Twilight
Astronomical Twilight
Moon
Length of Visible Light
Length of Day
Tomorrow will be .
, % of the Moon is Illuminated

Today's Extremes

State Highs State Lows

Community

WunderPhotos

Upload Photos

1,891,728 photos uploaded!

WunderBlog® & News

Nearby

Air Quality

  Air Quality AQ Index Pollutant
Not available.

Snow Depth

Station Depth Elevation

Earthquake Activity

City Distance Mag. Time & Date
Minimum magnitude displayed is 2.5.

Coastal Water Temperatures

Place Temperature

Stations

Nearby Weather Stations

Station Location Temp. Windchill Dew Point Humidity Wind Precip. Elev Updated Type
                   

Watches & Warnings

There are currently no watches in effect.